Time;durP1;ratioP1;P1;durP2;ratioP2;P2;SDS_P1;SDS_P2;PMS_P1;PMS_P2;Temp;Humidity;BMP_temperature;BMP_pressure;BME280_temperature;BME280_humidity;BME280_pressure;Samples;Min_cycle;Max_cycle;Signal;HPM_P1;HPM_P2
2023/09/04 00:02:52;;;;;;;10.80;7.38;;;;;;;14.86;100.00;102741.41;10457832;28;20033;-67
2023/09/04 00:07:52;;;;;;;9.10;7.72;;;;;;;14.81;100.00;102741.13;10439984;28;20120;-67
2023/09/04 00:12:53;;;;;;;8.70;7.80;;;;;;;14.75;100.00;102739.13;10456743;28;20037;-67
2023/09/04 00:17:55;;;;;;;10.45;8.88;;;;;;;14.69;100.00;102737.09;10455737;28;20033;-67
2023/09/04 00:22:55;;;;;;;11.13;9.35;;;;;;;14.63;100.00;102736.78;10456008;28;20040;-66
2023/09/04 00:27:57;;;;;;;13.45;8.25;;;;;;;14.62;100.00;102729.63;10453254;28;20064;-66
2023/09/04 00:32:57;;;;;;;12.77;7.85;;;;;;;14.56;100.00;102729.50;10455220;28;20112;-67
2023/09/04 00:37:57;;;;;;;10.70;9.48;;;;;;;14.49;100.00;102729.34;10454733;28;20120;-67
2023/09/04 00:42:58;;;;;;;14.80;8.65;;;;;;;14.41;100.00;102727.50;10455221;28;20530;-67
2023/09/04 00:47:58;;;;;;;11.25;8.63;;;;;;;14.37;100.00;102734.34;10454289;28;20117;-66
2023/09/04 00:53:00;;;;;;;10.13;8.82;;;;;;;14.38;100.00;102724.28;10455760;28;20029;-66
2023/09/04 00:58:01;;;;;;;10.90;9.55;;;;;;;14.37;100.00;102728.03;10454053;28;20021;-66
2023/09/04 01:03:03;;;;;;;22.17;9.52;;;;;;;14.31;100.00;102729.59;10455057;28;20060;-66
2023/09/04 01:08:04;;;;;;;13.52;9.35;;;;;;;14.26;100.00;102728.44;10436261;28;20425;-67
2023/09/04 01:13:09;;;;;;;13.38;9.02;;;;;;;14.22;100.00;102733.38;10452999;28;20044;-66
2023/09/04 01:18:10;;;;;;;12.05;9.93;;;;;;;14.22;100.00;102735.25;10435520;28;20349;-67
2023/09/04 01:23:10;;;;;;;10.75;9.65;;;;;;;14.16;100.00;102734.94;10452710;28;20108;-67
2023/09/04 01:28:21;;;;;;;12.30;10.65;;;;;;;14.14;100.00;102725.25;10452942;28;20451;-66
2023/09/04 01:33:24;;;;;;;11.90;8.65;;;;;;;14.12;100.00;102725.41;10435191;28;20039;-67
2023/09/04 01:38:24;;;;;;;11.98;9.82;;;;;;;14.07;100.00;102719.66;10439042;28;20072;-66
2023/09/04 01:43:25;;;;;;;11.27;9.18;;;;;;;14.07;100.00;102708.78;10444279;28;20033;-66
2023/09/04 01:48:25;;;;;;;10.77;9.73;;;;;;;14.08;100.00;102706.88;10460021;28;20040;-67
2023/09/04 01:53:25;;;;;;;11.70;10.35;;;;;;;14.06;100.00;102714.38;10460468;28;20059;-67
2023/09/04 01:58:27;;;;;;;13.93;11.00;;;;;;;14.06;100.00;102720.66;10460972;28;20047;-66
2023/09/04 02:03:27;;;;;;;10.82;9.52;;;;;;;14.06;100.00;102719.81;10458704;28;20029;-66
2023/09/04 02:08:28;;;;;;;9.25;8.05;;;;;;;14.02;100.00;102721.22;10459497;28;20072;-66
2023/09/04 02:13:28;;;;;;;18.33;9.68;;;;;;;13.95;100.00;102718.34;10460805;28;20061;-67
2023/09/04 02:18:28;;;;;;;12.32;11.00;;;;;;;13.91;100.00;102703.34;10459564;28;20392;-66
2023/09/04 02:23:29;;;;;;;14.57;10.65;;;;;;;13.89;100.00;102702.69;10459586;28;20116;-67
2023/09/04 02:28:30;;;;;;;10.90;9.77;;;;;;;13.87;100.00;102702.03;10459119;28;20186;-67
2023/09/04 02:33:30;;;;;;;13.02;10.02;;;;;;;13.83;100.00;102698.81;10459658;28;20445;-66
2023/09/04 02:38:32;;;;;;;13.20;10.73;;;;;;;13.92;100.00;102697.75;10475239;28;20389;-66
2023/09/04 02:43:33;;;;;;;13.65;11.65;;;;;;;13.95;100.00;102691.09;10458947;28;20069;-67
2023/09/04 02:48:33;;;;;;;12.20;10.55;;;;;;;13.94;100.00;102678.50;10455927;28;20468;-66
2023/09/04 02:53:34;;;;;;;11.77;10.07;;;;;;;13.91;100.00;102673.41;10458097;28;20044;-67
2023/09/04 02:58:34;;;;;;;19.85;10.75;;;;;;;13.86;100.00;102670.38;10458636;28;20044;-67
2023/09/04 03:03:36;;;;;;;20.45;9.75;;;;;;;13.86;100.00;102670.38;10458261;28;20100;-67
2023/09/04 03:08:40;;;;;;;10.60;9.55;;;;;;;13.85;100.00;102668.69;10456759;28;20090;-68
2023/09/04 03:13:40;;;;;;;9.30;7.82;;;;;;;13.75;100.00;102663.41;10457353;28;20192;-67
2023/09/04 03:18:40;;;;;;;11.07;9.35;;;;;;;13.77;100.00;102661.38;10457231;28;20120;-67
2023/09/04 03:23:41;;;;;;;10.73;8.75;;;;;;;13.75;100.00;102646.22;10457690;28;20487;-67
2023/09/04 03:28:41;;;;;;;10.38;9.30;;;;;;;13.69;100.00;102656.81;10456755;28;20040;-66
2023/09/04 03:33:42;;;;;;;13.50;9.52;;;;;;;13.68;100.00;102649.66;10456915;28;20048;-67
2023/09/04 03:38:42;;;;;;;14.48;9.05;;;;;;;13.68;100.00;102648.81;10457083;28;20067;-66
2023/09/04 03:43:43;;;;;;;15.48;8.70;;;;;;;13.65;100.00;102650.00;10457531;28;20416;-66
2023/09/04 03:48:43;;;;;;;10.10;9.07;;;;;;;13.67;100.00;102641.69;10456780;28;20118;-67
2023/09/04 03:53:44;;;;;;;13.93;9.07;;;;;;;13.67;100.00;102630.78;10456761;28;20033;-66
2023/09/04 03:58:44;;;;;;;10.02;8.93;;;;;;;13.62;100.00;102639.47;10456223;28;20029;-67
2023/09/04 04:03:44;;;;;;;13.13;9.45;;;;;;;13.56;100.00;102648.38;10456031;28;20036;-67
2023/09/04 04:08:45;;;;;;;11.10;9.25;;;;;;;13.57;100.00;102646.47;10455145;28;20029;-67
2023/09/04 04:13:46;;;;;;;9.80;8.77;;;;;;;13.48;100.00;102642.94;10455794;28;20393;-67
2023/09/04 04:18:46;;;;;;;9.77;8.82;;;;;;;13.40;100.00;102651.09;10454031;28;20071;-67
2023/09/04 04:23:47;;;;;;;11.20;8.88;;;;;;;13.32;100.00;102649.25;10453632;28;20043;-68
2023/09/04 04:28:47;;;;;;;12.73;9.38;;;;;;;13.26;100.00;102647.22;10395704;28;20120;-67
2023/09/04 04:33:48;;;;;;;12.30;10.32;;;;;;;13.18;100.00;102647.22;10453128;28;20116;-68
2023/09/04 04:38:48;;;;;;;10.80;9.35;;;;;;;13.16;100.00;102663.69;10452799;28;20580;-69
2023/09/04 04:43:49;;;;;;;14.40;9.60;;;;;;;13.22;100.00;102651.28;10453194;28;20032;-69
2023/09/04 04:48:49;;;;;;;9.93;8.95;;;;;;;13.28;100.00;102656.06;10454731;28;20063;-67
2023/09/04 04:53:49;;;;;;;13.82;12.48;;;;;;;13.36;100.00;102644.31;10454295;28;20032;-65
2023/09/04 04:58:50;;;;;;;21.40;11.88;;;;;;;13.42;100.00;102641.75;10454615;28;20044;-68
2023/09/04 05:03:50;;;;;;;11.77;9.80;;;;;;;13.47;100.00;102643.97;10453475;28;20104;-68
2023/09/04 05:08:51;;;;;;;13.27;10.57;;;;;;;13.54;100.00;102635.94;10454236;28;20033;-67
2023/09/04 05:13:51;;;;;;;14.02;10.27;;;;;;;13.60;100.00;102638.81;10452324;28;20404;-67
2023/09/04 05:18:53;;;;;;;15.45;11.48;;;;;;;13.66;100.00;102637.28;10453277;28;20117;-67
2023/09/04 05:23:53;;;;;;;15.60;12.20;;;;;;;13.73;100.00;102636.38;10453823;28;20029;-67
2023/09/04 05:28:54;;;;;;;16.38;11.88;;;;;;;13.82;100.00;102633.63;10452362;28;20465;-68
2023/09/04 05:33:54;;;;;;;11.57;10.45;;;;;;;13.88;100.00;102633.78;10454324;28;20040;-67
2023/09/04 05:38:55;;;;;;;11.82;9.80;;;;;;;13.98;100.00;102641.72;10452603;28;20327;-67
2023/09/04 05:43:55;;;;;;;15.63;12.93;;;;;;;14.07;100.00;102632.50;10450592;28;20504;-68
2023/09/04 05:48:55;;;;;;;17.52;11.27;;;;;;;14.17;100.00;102635.84;10453273;28;20056;-67
2023/09/04 05:53:56;;;;;;;16.15;12.30;;;;;;;14.35;100.00;102638.28;10450820;28;20060;-68
2023/09/04 05:58:56;;;;;;;11.00;9.90;;;;;;;15.33;100.00;102629.28;10451741;28;20037;-68
2023/09/04 06:03:57;;;;;;;12.18;10.77;;;;;;;16.04;100.00;102626.91;10450050;28;20132;-68
2023/09/04 06:08:57;;;;;;;14.88;8.98;;;;;;;16.32;100.00;102618.00;10451868;28;20032;-68
2023/09/04 06:13:58;;;;;;;12.13;8.95;;;;;;;16.35;100.00;102624.97;10451242;28;20440;-68
2023/09/04 06:18:58;;;;;;;11.45;10.05;;;;;;;16.70;100.00;102621.31;10451743;28;20140;-68
2023/09/04 06:23:58;;;;;;;10.30;9.05;;;;;;;17.36;100.00;102618.31;10455920;28;20135;-68
2023/09/04 06:28:59;;;;;;;14.02;9.57;;;;;;;17.40;100.00;102613.28;10441601;28;20095;-67
2023/09/04 06:34:03;;;;;;;12.40;9.68;;;;;;;17.58;100.00;102616.34;10459074;28;20460;-68
2023/09/04 06:39:04;;;;;;;17.70;9.90;;;;;;;18.31;100.00;102615.78;10458265;28;20106;-68
2023/09/04 06:44:05;;;;;;;9.77;8.88;;;;;;;18.69;100.00;102607.00;10459378;28;20041;-68
2023/09/04 06:49:05;;;;;;;11.90;10.73;;;;;;;19.11;100.00;102613.13;10458521;28;20033;-68
2023/09/04 06:54:05;;;;;;;10.15;8.95;;;;;;;19.52;100.00;102607.34;10458124;28;20446;-68
2023/09/04 06:59:06;;;;;;;10.65;8.48;;;;;;;20.30;100.00;102611.94;10458738;28;20041;-68
2023/09/04 07:04:06;;;;;;;12.20;9.55;;;;;;;19.65;100.00;102607.34;10456162;28;20043;-68
2023/09/04 07:09:07;;;;;;;9.63;8.63;;;;;;;19.19;100.00;102611.03;10458346;28;20095;-68
2023/09/04 07:14:07;;;;;;;19.17;10.55;;;;;;;18.94;100.00;102610.81;10456889;28;20075;-68
2023/09/04 07:19:07;;;;;;;10.30;9.27;;;;;;;19.03;100.00;102619.69;10457064;28;20026;-68
2023/09/04 07:24:08;;;;;;;11.80;10.55;;;;;;;19.09;100.00;102604.28;10457921;28;20362;-69
2023/09/04 07:29:08;;;;;;;15.95;10.68;;;;;;;19.38;100.00;102601.06;10455729;28;20060;-68
2023/09/04 07:34:09;;;;;;;11.82;10.20;;;;;;;19.83;100.00;102598.41;10456797;28;20095;-68
2023/09/04 07:39:09;;;;;;;13.60;9.77;;;;;;;20.27;100.00;102598.63;10456897;28;20053;-68
2023/09/04 07:44:10;;;;;;;13.13;10.00;;;;;;;20.80;100.00;102610.09;10457283;28;20135;-68
2023/09/04 07:49:10;;;;;;;12.35;10.23;;;;;;;21.33;100.00;102615.13;10455572;28;20127;-68
2023/09/04 07:54:11;;;;;;;11.90;9.45;;;;;;;21.51;100.00;102610.75;10454545;28;20068;-68
2023/09/04 07:59:11;;;;;;;9.43;8.50;;;;;;;21.85;100.00;102611.16;10454234;28;20124;-68
2023/09/04 08:04:13;;;;;;;10.35;9.40;;;;;;;22.66;100.00;102618.13;10456559;28;20047;-68
2023/09/04 08:09:14;;;;;;;20.15;10.07;;;;;;;23.36;100.00;102626.50;10454522;28;20057;-68
2023/09/04 08:14:14;;;;;;;10.88;9.77;;;;;;;23.74;93.45;102627.91;10455411;28;20150;-69
2023/09/04 08:19:14;;;;;;;13.18;10.73;;;;;;;23.36;86.54;102622.91;10455397;28;20055;-68
2023/09/04 08:24:15;;;;;;;11.07;9.02;;;;;;;23.00;85.63;102608.22;10453318;28;20043;-69
2023/09/04 08:29:15;;;;;;;10.95;8.60;;;;;;;22.84;83.46;102615.25;10454159;28;20036;-69
2023/09/04 08:34:16;;;;;;;16.88;9.52;;;;;;;23.17;84.19;102606.44;10455898;28;20127;-68
2023/09/04 08:39:16;;;;;;;11.20;8.20;;;;;;;23.83;79.83;102612.59;10454646;28;20087;-68
2023/09/04 08:44:17;;;;;;;9.65;8.68;;;;;;;23.92;74.69;102607.53;10454564;28;20126;-68
2023/09/04 08:49:17;;;;;;;11.02;9.98;;;;;;;23.62;75.81;102586.41;10435023;28;20040;-68
2023/09/04 08:54:17;;;;;;;10.18;9.07;;;;;;;24.02;76.46;102588.34;10453323;28;20085;-68
2023/09/04 08:59:18;;;;;;;9.40;8.52;;;;;;;24.08;72.99;102589.28;10435279;28;20029;-68
2023/09/04 09:04:20;;;;;;;8.70;7.70;;;;;;;24.65;77.39;102592.03;10435268;28;20064;-69
2023/09/04 09:09:21;;;;;;;14.45;8.57;;;;;;;24.53;72.69;102596.78;10452059;28;20499;-68
2023/09/04 09:14:28;;;;;;;10.18;8.95;;;;;;;24.77;73.61;102590.00;10452960;28;20070;-68
2023/09/04 09:19:33;;;;;;;12.32;10.73;;;;;;;25.14;70.59;102583.94;10453643;28;20025;-68
2023/09/04 09:24:34;;;;;;;11.53;10.33;;;;;;;25.41;69.27;102575.75;10452849;28;20029;-68
2023/09/04 09:29:34;;;;;;;9.85;8.95;;;;;;;25.54;71.88;102580.06;10435907;28;20332;-68
2023/09/04 09:34:35;;;;;;;8.25;7.63;;;;;;;25.39;68.57;102575.16;10451164;28;20036;-68
2023/09/04 09:39:35;;;;;;;9.63;8.57;;;;;;;25.30;70.70;102576.69;10434434;28;20469;-68
2023/09/04 09:44:36;;;;;;;11.45;8.38;;;;;;;25.22;71.99;102563.28;10452311;28;20067;-68
2023/09/04 09:49:36;;;;;;;8.75;8.05;;;;;;;25.12;69.74;102568.66;10452399;28;20048;-68
2023/09/04 09:54:37;;;;;;;9.65;8.65;;;;;;;25.85;75.02;102561.06;10451216;28;20123;-68
2023/09/04 09:59:41;;;;;;;10.20;9.07;;;;;;;26.39;69.59;102553.56;10454907;28;20028;-68
2023/09/04 10:04:42;;;;;;;10.60;9.07;;;;;;;26.27;66.53;102546.50;10459140;28;20044;-69
2023/09/04 10:09:44;;;;;;;9.73;8.43;;;;;;;26.50;63.79;102534.22;10442648;28;20051;-68
2023/09/04 10:14:45;;;;;;;9.05;7.93;;;;;;;26.94;61.31;102520.09;10459441;28;20349;-68
2023/09/04 10:19:47;;;;;;;16.55;8.93;;;;;;;27.21;61.13;102511.63;10441431;28;20072;-69
2023/09/04 10:25:27;;;;;;;8.13;7.32;;;;;;;27.90;60.46;102514.13;10459212;28;20073;-69
2023/09/04 10:30:27;;;;;;;9.43;8.60;;;;;;;28.09;57.83;102524.75;10291568;28;20321;-68
2023/09/04 10:35:27;;;;;;;8.07;7.47;;;;;;;28.07;56.83;102519.44;10412314;28;20041;-68
2023/09/04 10:40:28;;;;;;;8.82;8.02;;;;;;;27.97;58.97;102511.06;10441621;28;20136;-69
2023/09/04 10:45:29;;;;;;;7.28;6.53;;;;;;;28.59;57.11;102510.03;10457920;28;20052;-68
2023/09/04 10:50:30;;;;;;;8.50;7.22;;;;;;;28.57;57.67;102500.25;10459319;28;20377;-69
2023/09/04 10:55:31;;;;;;;7.78;7.03;;;;;;;28.40;54.99;102515.31;10459960;28;20041;-69
2023/09/04 11:00:35;;;;;;;6.85;6.18;;;;;;;28.30;55.14;102501.34;10459861;28;20152;-69
2023/09/04 11:06:02;;;;;;;9.77;7.40;;;;;;;28.25;56.52;102499.41;10458256;28;20032;-69
2023/09/04 11:11:03;;;;;;;;;;;;;;;28.46;53.92;102483.56;10443410;28;20051;-68
2023/09/04 11:16:05;;;;;;;8.55;7.68;;;;;;;28.52;55.63;102487.97;10457175;28;19916;-68
2023/09/04 11:21:05;;;;;;;7.40;6.28;;;;;;;29.32;52.18;102489.19;10456713;28;20037;-68
2023/09/04 11:26:06;;;;;;;7.53;6.85;;;;;;;29.60;50.68;102477.34;10457564;28;20033;-68
2023/09/04 11:31:06;;;;;;;6.38;5.88;;;;;;;29.44;51.52;102484.94;10438524;28;20455;-68
2023/09/04 11:36:07;;;;;;;6.88;6.28;;;;;;;29.65;49.17;102476.50;10454783;28;20056;-68
2023/09/04 11:41:15;;;;;;;7.55;6.22;;;;;;;28.98;50.00;102462.78;10455819;28;20059;-68
2023/09/04 11:46:15;;;;;;;6.05;5.45;;;;;;;29.14;49.40;102448.81;10456282;28;20053;-68
2023/09/04 11:51:16;;;;;;;12.50;6.72;;;;;;;29.54;47.86;102458.09;10437640;28;20198;-68
2023/09/04 11:56:16;;;;;;;7.65;5.80;;;;;;;29.76;47.67;102455.75;10456568;28;20441;-68
2023/09/04 12:01:16;;;;;;;5.45;4.93;;;;;;;30.32;47.84;102446.94;10455950;28;20045;-68
2023/09/04 12:06:17;;;;;;;7.05;4.93;;;;;;;30.75;46.17;102444.22;10455626;28;20457;-69
2023/09/04 12:11:17;;;;;;;4.93;3.70;;;;;;;30.57;45.99;102437.47;10454872;28;20424;-69
2023/09/04 12:16:18;;;;;;;5.28;4.88;;;;;;;30.38;44.14;102435.69;10454894;28;20045;-68
2023/09/04 12:21:19;;;;;;;4.25;3.88;;;;;;;30.01;44.68;102439.91;10455064;28;20064;-69
2023/09/04 12:26:19;;;;;;;3.95;3.65;;;;;;;30.15;44.00;102424.13;10436400;28;20464;-68
2023/09/04 12:31:23;;;;;;;3.50;3.20;;;;;;;30.29;42.82;102418.75;10455218;28;20112;-68
2023/09/04 12:36:24;;;;;;;4.13;3.22;;;;;;;30.25;42.44;102417.66;10452757;28;20052;-68
2023/09/04 12:41:24;;;;;;;2.72;2.53;;;;;;;29.97;43.67;102403.38;10453313;28;20061;-68
2023/09/04 12:46:25;;;;;;;3.03;2.83;;;;;;;29.97;44.46;102399.75;10452177;28;20120;-68
2023/09/04 12:51:25;;;;;;;4.80;4.40;;;;;;;30.48;42.87;102388.09;10452591;28;20067;-69
2023/09/04 12:56:25;;;;;;;3.05;2.85;;;;;;;30.06;42.06;102390.44;10454143;28;20044;-68
2023/09/04 13:01:26;;;;;;;4.10;3.72;;;;;;;29.32;43.67;102388.72;10453774;28;20149;-68
2023/09/04 13:06:28;;;;;;;4.85;4.40;;;;;;;29.41;45.03;102379.47;10452669;28;20037;-68
2023/09/04 13:11:28;;;;;;;7.80;4.28;;;;;;;29.60;45.03;102371.25;10435363;28;20353;-69
2023/09/04 13:16:29;;;;;;;4.85;4.38;;;;;;;29.52;45.06;102371.03;10451997;28;20044;-69
2023/09/04 13:21:29;;;;;;;8.90;5.47;;;;;;;29.15;46.35;102364.00;10451087;28;20048;-69
2023/09/04 13:26:30;;;;;;;4.53;4.22;;;;;;;28.62;47.13;102360.88;10453955;28;20081;-68
2023/09/04 13:31:30;;;;;;;6.22;4.70;;;;;;;28.84;48.33;102350.19;10452147;28;20067;-69
2023/09/04 13:36:30;;;;;;;6.38;5.75;;;;;;;29.09;47.46;102340.06;10452403;28;20059;-68
2023/09/04 13:41:31;;;;;;;12.57;5.10;;;;;;;29.09;46.41;102349.25;10453465;28;20056;-68
2023/09/04 13:46:31;;;;;;;5.03;4.63;;;;;;;28.99;47.09;102335.34;10452664;28;20044;-68
2023/09/04 13:51:31;;;;;;;4.47;4.18;;;;;;;28.72;48.04;102332.97;10450476;28;20037;-69
2023/09/04 13:56:32;;;;;;;7.68;5.38;;;;;;;28.49;47.80;102321.38;10452703;28;20326;-68
2023/09/04 14:01:32;;;;;;;6.72;5.93;;;;;;;28.31;49.11;102321.94;10452141;28;20093;-68
2023/09/04 14:06:33;;;;;;;6.65;6.05;;;;;;;27.98;49.60;102310.31;10452960;28;20037;-69
2023/09/04 14:11:34;;;;;;;10.02;6.20;;;;;;;27.72;50.12;102300.28;10452806;28;20469;-68
2023/09/04 14:16:35;;;;;;;5.70;5.20;;;;;;;27.52;50.50;102301.13;10449964;28;20044;-68
2023/09/04 14:21:35;;;;;;;6.60;5.95;;;;;;;27.25;49.65;102302.25;10451671;28;20429;-68
2023/09/04 14:26:35;;;;;;;5.22;4.75;;;;;;;27.00;50.16;102300.22;10451802;28;20036;-68
2023/09/04 14:31:36;;;;;;;5.50;5.00;;;;;;;26.49;51.16;102293.66;10452287;28;20445;-68
2023/09/04 14:36:36;;;;;;;7.07;4.90;;;;;;;26.30;51.08;102301.59;10452847;28;20073;-68
2023/09/04 14:41:37;;;;;;;5.25;4.75;;;;;;;26.24;52.87;102291.56;10453484;28;20306;-68
2023/09/04 14:46:37;;;;;;;5.25;4.75;;;;;;;26.20;53.45;102292.09;10456349;28;20041;-68
2023/09/04 14:51:38;;;;;;;4.30;4.00;;;;;;;26.13;52.71;102276.75;10457723;28;20108;-68
2023/09/04 14:56:38;;;;;;;4.82;4.35;;;;;;;25.88;53.34;102269.97;10458171;28;20400;-68
2023/09/04 15:01:38;;;;;;;4.00;3.70;;;;;;;25.65;53.74;102264.75;10457206;28;20123;-68
2023/09/04 15:06:41;;;;;;;3.33;3.13;;;;;;;25.65;54.01;102257.25;10459099;28;20076;-67
2023/09/04 15:11:41;;;;;;;13.52;4.38;;;;;;;25.63;54.73;102253.09;10459680;28;20047;-68
2023/09/04 15:16:42;;;;;;;4.35;3.70;;;;;;;25.43;54.02;102250.97;10459732;28;20350;-68
2023/09/04 15:21:43;;;;;;;4.47;4.10;;;;;;;25.41;54.45;102239.34;10457570;28;20368;-68
2023/09/04 15:26:43;;;;;;;7.93;4.93;;;;;;;25.35;55.68;102244.00;10456204;28;20114;-68
2023/09/04 15:31:44;;;;;;;4.70;3.67;;;;;;;25.31;57.00;102242.88;10456908;28;20090;-68
2023/09/04 15:36:44;;;;;;;3.65;3.35;;;;;;;25.30;58.15;102249.50;10456485;28;20163;-68
2023/09/04 15:41:44;;;;;;;4.28;3.80;;;;;;;25.27;59.90;102238.94;10455619;28;20049;-68
2023/09/04 15:46:48;;;;;;;8.73;5.22;;;;;;;25.16;59.90;102223.31;10455417;28;20465;-68
2023/09/04 15:51:48;;;;;;;4.78;4.38;;;;;;;24.95;61.10;102225.88;10455926;28;20075;-68
2023/09/04 15:56:49;;;;;;;7.03;5.00;;;;;;;24.86;62.14;102237.69;10455348;28;20163;-68
2023/09/04 16:01:50;;;;;;;5.03;4.28;;;;;;;24.76;62.58;102236.50;10456071;28;20115;-68
2023/09/04 16:06:51;;;;;;;7.38;5.88;;;;;;;24.74;63.78;102227.59;10455092;28;20067;-68
2023/09/04 16:11:52;;;;;;;5.13;4.65;;;;;;;24.63;65.36;102216.66;10454448;28;20033;-68
2023/09/04 16:16:52;;;;;;;8.20;4.47;;;;;;;24.52;66.71;102210.16;10454949;28;20373;-68
2023/09/04 16:21:53;;;;;;;4.50;3.78;;;;;;;24.48;67.92;102200.72;10453665;28;20041;-68
2023/09/04 16:26:54;;;;;;;4.40;3.97;;;;;;;24.29;66.11;102206.56;10454161;28;20040;-68
2023/09/04 16:31:54;;;;;;;9.25;4.80;;;;;;;24.20;66.64;102201.72;10455286;28;20037;-68
2023/09/04 16:36:54;;;;;;;4.88;4.47;;;;;;;24.10;67.23;102191.38;10454781;28;20069;-68
2023/09/04 16:41:55;;;;;;;4.45;3.80;;;;;;;23.95;67.67;102193.91;10454347;28;20472;-68
2023/09/04 16:46:55;;;;;;;2.67;2.47;;;;;;;23.84;65.40;102182.72;10453430;28;20037;-67
2023/09/04 16:51:56;;;;;;;3.72;3.42;;;;;;;23.75;64.74;102170.41;10453967;28;20192;-68
2023/09/04 16:56:56;;;;;;;2.92;2.72;;;;;;;23.66;65.13;102161.69;10452673;28;20067;-67
2023/09/04 17:01:56;;;;;;;4.45;3.78;;;;;;;23.58;66.24;102166.81;10454351;28;20186;-68
2023/09/04 17:06:57;;;;;;;4.18;2.95;;;;;;;23.52;66.89;102152.09;10452084;28;20044;-68
2023/09/04 17:11:58;;;;;;;14.43;3.47;;;;;;;23.48;67.22;102139.84;10453205;28;20028;-68
2023/09/04 17:16:58;;;;;;;3.47;3.17;;;;;;;23.42;68.48;102143.63;10452085;28;20068;-68
2023/09/04 17:21:58;;;;;;;7.57;4.38;;;;;;;23.46;69.09;102132.91;10451126;28;20035;-68
2023/09/04 17:27:00;;;;;;;5.03;4.40;;;;;;;23.39;70.25;102141.38;10451559;28;20036;-68
2023/09/04 17:32:02;;;;;;;11.88;3.80;;;;;;;23.28;73.24;102139.53;10452764;28;20116;-68
2023/09/04 17:37:03;;;;;;;4.38;3.97;;;;;;;23.18;75.60;102135.53;10452957;28;20037;-68
2023/09/04 17:42:04;;;;;;;3.88;3.50;;;;;;;23.09;78.22;102134.28;10451004;28;20592;-68
2023/09/04 17:47:04;;;;;;;9.32;4.75;;;;;;;23.00;79.68;102137.72;10452236;28;20223;-68
2023/09/04 17:52:05;;;;;;;8.60;6.32;;;;;;;22.88;81.57;102135.00;10451885;28;20115;-68
2023/09/04 17:57:06;;;;;;;5.32;4.88;;;;;;;22.75;83.60;102133.41;10453168;28;20037;-68
2023/09/04 18:02:07;;;;;;;6.28;5.68;;;;;;;22.69;82.56;102134.41;10452674;28;20481;-68
2023/09/04 18:07:08;;;;;;;9.45;5.05;;;;;;;22.51;85.08;102136.28;10451847;28;20114;-68
2023/09/04 18:12:09;;;;;;;5.93;5.40;;;;;;;22.38;86.12;102139.34;10452356;28;20147;-68
2023/09/04 18:17:09;;;;;;;5.57;4.97;;;;;;;22.23;86.05;102141.78;10452768;28;20188;-68
2023/09/04 18:22:09;;;;;;;5.75;5.18;;;;;;;22.06;87.51;102128.75;10458624;28;20132;-68
2023/09/04 18:27:10;;;;;;;5.75;5.18;;;;;;;21.90;89.23;102128.69;10460358;28;20104;-68
2023/09/04 18:32:10;;;;;;;6.43;5.32;;;;;;;21.79;90.16;102127.59;10458102;28;20082;-68
2023/09/04 18:37:11;;;;;;;6.15;5.25;;;;;;;21.64;89.31;102121.78;10457875;28;20098;-69
2023/09/04 18:42:11;;;;;;;11.32;5.82;;;;;;;21.46;91.56;102123.59;10456633;28;20202;-73
2023/09/04 18:47:12;;;;;;;6.80;5.38;;;;;;;21.32;91.27;102119.38;10458493;28;20102;-71
2023/09/04 18:52:13;;;;;;;8.10;6.00;;;;;;;21.17;95.50;102113.50;10456906;28;20119;-75
2023/09/04 18:57:16;;;;;;;7.63;6.03;;;;;;;21.09;93.74;102123.81;10456940;28;20029;-75
2023/09/04 19:02:16;;;;;;;8.20;6.78;;;;;;;20.96;96.01;102124.00;10456761;28;20043;-74
2023/09/04 19:07:19;;;;;;;7.68;6.95;;;;;;;20.82;95.40;102123.38;10458150;28;20404;-74
2023/09/04 19:12:20;;;;;;;5.78;5.25;;;;;;;20.71;98.07;102117.84;10456525;28;20366;-74
2023/09/04 19:17:20;;;;;;;15.35;7.07;;;;;;;20.66;100.00;102115.81;10458419;28;20037;-71
2023/09/04 19:22:21;;;;;;;7.32;6.72;;;;;;;20.57;99.98;102097.94;10458529;28;20032;-72
2023/09/04 19:27:23;;;;;;;6.22;5.63;;;;;;;20.43;100.00;102097.28;10456935;28;20032;-73
2023/09/04 19:32:26;;;;;;;8.50;7.30;;;;;;;20.36;100.00;102102.88;10456221;28;20109;-75
2023/09/04 19:37:27;;;;;;;7.68;6.93;;;;;;;20.31;100.00;102110.16;10455340;28;20033;-67
2023/09/04 19:42:27;;;;;;;7.28;6.53;;;;;;;20.27;100.00;102103.44;10455289;28;20143;-67
2023/09/04 19:47:28;;;;;;;10.23;7.80;;;;;;;20.21;100.00;102096.97;10454604;28;20064;-68
2023/09/04 19:52:28;;;;;;;13.95;7.18;;;;;;;20.16;100.00;102092.16;10455184;28;20052;-68
2023/09/04 19:57:29;;;;;;;10.07;7.40;;;;;;;20.11;100.00;102096.69;10457341;28;20077;-67
2023/09/04 20:02:30;;;;;;;9.10;7.93;;;;;;;19.94;100.00;102099.22;10455320;28;20033;-68
2023/09/04 20:07:30;;;;;;;9.68;6.88;;;;;;;19.73;100.00;102101.38;10455076;28;20029;-67
2023/09/04 20:12:30;;;;;;;11.32;6.45;;;;;;;19.56;100.00;102086.53;10455910;28;20033;-67
2023/09/04 20:17:31;;;;;;;7.82;6.82;;;;;;;19.51;100.00;102083.63;10455260;28;20037;-67
2023/09/04 20:22:32;;;;;;;7.13;6.43;;;;;;;19.54;100.00;102082.34;10455405;28;20033;-67
2023/09/04 20:27:32;;;;;;;6.88;6.22;;;;;;;19.57;100.00;102079.13;10453075;28;20408;-67
2023/09/04 20:32:33;;;;;;;15.90;7.13;;;;;;;19.54;100.00;102080.44;10437165;28;20120;-68
2023/09/04 20:37:35;;;;;;;7.63;6.80;;;;;;;19.46;100.00;102077.97;10454811;28;20040;-68
2023/09/04 20:42:35;;;;;;;6.38;5.75;;;;;;;19.38;100.00;102072.78;10453629;28;20064;-67
2023/09/04 20:47:36;;;;;;;7.00;5.50;;;;;;;19.35;100.00;102076.81;10469751;28;20120;-68
2023/09/04 20:52:36;;;;;;;7.68;6.88;;;;;;;19.23;100.00;102081.38;10455002;28;20040;-68
2023/09/04 20:57:37;;;;;;;11.98;5.40;;;;;;;19.19;100.00;102074.69;10436027;28;20037;-68
2023/09/04 21:02:39;;;;;;;5.85;5.35;;;;;;;19.17;100.00;102074.88;10452860;28;20045;-68
2023/09/04 23:25:35;;;;;;;7.40;6.70;;;;;;;17.02;100.00;102040.81;10458466;28;20456;-67
2023/09/04 23:30:37;;;;;;;10.10;6.43;;;;;;;16.93;100.00;102040.19;10457553;28;20393;-68
2023/09/04 23:46:16;;;;;;;8.07;7.07;;;;;;;16.83;100.00;102023.38;10458336;28;20448;-67
2023/09/04 23:51:18;;;;;;;7.95;7.15;;;;;;;16.76;100.00;102017.91;10457099;28;20033;-68
2023/09/04 23:56:19;;;;;;;8.77;7.43;;;;;;;16.68;100.00;102007.13;10456822;28;20041;-68
